Terminal Aerodrome Forecast
Issued by NWS Sterling, VA

Home | Current Version | Previous Version | Text Only | Print | Product List | Glossary On
Versions: 1 2 3 4 5 6 7 8 9 10 11 12 13 14 15 16 17
000
FTUS41 KLWX 011700 AAA
TAFCHO
TAF AMD
KCHO 011736Z 0118/0212 15005KT P6SM OVC090
     FM020200 16005KT 5SM RA OVC050
     FM020300 16005KT 5SM RA OVC015
     FM020500 18005KT 3SM RA OVC015
     FM020600 19006KT 3SM RA OVC008
     FM020800 19006KT 3SM -RA OVC008 WS020/21040KT
     FM021100 21007KT 3SM -RA OVC003=

USA.gov is the U.S. government's official web portal to all federal, state and local government web resources and services.